Time;durP1;ratioP1;P1;durP2;ratioP2;P2;SDS_P1;SDS_P2;PMS_P1;PMS_P2;Temp;Humidity;BMP_temperature;BMP_pressure;BME280_temperature;BME280_humidity;BME280_pressure;Samples;Min_cycle;Max_cycle;Signal;HPM_P1;HPM_P2
2023/09/19 00:01:08;;;;;;;10.63;2.13;;;15.20;99.90;;;;;;5062045;28;20439;-58
2023/09/19 00:03:37;;;;;;;6.47;1.58;;;15.20;99.90;;;;;;5080717;28;20067;-56
2023/09/19 00:06:10;;;;;;;9.32;1.98;;;15.30;99.90;;;;;;5059568;28;20058;-57
2023/09/19 00:08:35;;;;;;;12.48;2.45;;;15.30;99.90;;;;;;5056292;28;20123;-56
2023/09/19 00:11:03;;;;;;;10.60;2.22;;;15.30;99.90;;;;;;5042111;28;20723;-56
2023/09/19 00:13:30;;;;;;;10.00;2.10;;;15.30;99.90;;;;;;5038431;28;20394;-58
2023/09/19 00:15:58;;;;;;;12.55;2.35;;;15.30;99.90;;;;;;5054400;28;20040;-57
2023/09/19 00:18:28;;;;;;;7.18;2.10;;;15.30;99.90;;;;;;5060645;28;20040;-57
2023/09/19 00:21:00;;;;;;;8.07;2.97;;;15.30;99.90;;;;;;5039128;28;20076;-54
2023/09/19 00:23:28;;;;;;;10.13;2.35;;;15.30;99.90;;;;;;5049189;28;20067;-58
2023/09/19 00:25:57;;;;;;;11.50;2.30;;;15.30;99.90;;;;;;5042408;28;20542;-58
2023/09/19 00:28:23;;;;;;;11.85;2.63;;;15.30;99.90;;;;;;5063449;28;20453;-57
2023/09/19 00:30:51;;;;;;;12.60;2.70;;;15.30;99.90;;;;;;5042548;28;20131;-57
2023/09/19 00:33:19;;;;;;;11.30;2.58;;;15.30;99.90;;;;;;5050596;28;20041;-58
2023/09/19 00:35:52;;;;;;;10.60;2.20;;;15.30;99.90;;;;;;5060105;28;20079;-59
2023/09/19 00:38:22;;;;;;;10.00;2.35;;;15.20;99.90;;;;;;5060421;28;20040;-58
2023/09/19 00:40:52;;;;;;;9.52;1.95;;;15.20;99.90;;;;;;5061090;28;20040;-58
2023/09/19 00:43:18;;;;;;;12.95;2.63;;;15.10;99.90;;;;;;5063210;28;20041;-59
2023/09/19 00:45:47;;;;;;;10.32;2.15;;;15.10;99.90;;;;;;5058541;28;20041;-58
2023/09/19 00:48:14;;;;;;;13.32;2.53;;;15.10;99.90;;;;;;5059631;28;20041;-57
2023/09/19 00:50:43;;;;;;;12.73;3.40;;;15.10;99.90;;;;;;5054632;28;20041;-58
2023/09/19 00:53:13;;;;;;;8.95;2.22;;;15.00;99.90;;;;;;5061922;28;20044;-59
2023/09/19 00:55:42;;;;;;;11.50;2.80;;;15.00;99.90;;;;;;5057864;28;20116;-57
2023/09/19 00:58:10;;;;;;;8.23;2.28;;;14.90;99.90;;;;;;5063662;28;20673;-58
2023/09/19 01:00:36;;;;;;;6.80;2.15;;;14.90;99.90;;;;;;5061556;28;20048;-58
2023/09/19 01:03:01;;;;;;;8.98;3.42;;;14.80;99.90;;;;;;5062363;28;20047;-58
2023/09/19 01:05:28;;;;;;;7.78;2.20;;;14.80;99.90;;;;;;5044245;28;20490;-57
2023/09/19 01:07:53;;;;;;;10.73;2.47;;;14.80;99.90;;;;;;5058393;28;20053;-58
2023/09/19 01:10:20;;;;;;;13.80;2.60;;;14.70;99.90;;;;;;5063890;28;20044;-59
2023/09/19 01:13:11;;;;;;;8.88;2.88;;;14.70;99.90;;;;;;5047820;28;20155;-57
2023/09/19 01:15:42;;;;;;;11.50;2.38;;;14.70;99.90;;;;;;5064431;28;20040;-56
2023/09/19 01:18:27;;;;;;;11.73;2.30;;;14.60;99.90;;;;;;5049104;28;20375;-58
2023/09/19 01:21:12;;;;;;;11.45;2.13;;;14.60;99.90;;;;;;5065877;28;20115;-59
2023/09/19 01:24:01;;;;;;;6.53;1.75;;;14.60;99.90;;;;;;5059902;28;20036;-57
2023/09/19 01:27:08;;;;;;;6.82;1.77;;;14.60;99.90;;;;;;5063403;28;20051;-56
2023/09/19 01:29:48;;;;;;;7.68;1.98;;;14.60;99.90;;;;;;5064754;28;20079;-57
2023/09/19 01:32:22;;;;;;;7.95;1.77;;;14.60;99.90;;;;;;5058584;28;20052;-58
2023/09/19 01:34:56;;;;;;;7.40;1.73;;;14.60;99.90;;;;;;5044759;28;20511;-58
2023/09/19 01:37:25;;;;;;;11.85;2.35;;;14.60;99.90;;;;;;5064324;28;20099;-58
2023/09/19 01:39:57;;;;;;;8.25;2.10;;;14.60;99.90;;;;;;5066375;28;20496;-58
2023/09/19 01:42:43;;;;;;;5.88;1.80;;;14.60;99.90;;;;;;5046620;28;20064;-57
2023/09/19 01:45:21;;;;;;;7.28;1.60;;;14.60;99.90;;;;;;5064162;28;20430;-58
2023/09/19 01:47:56;;;;;;;9.35;1.88;;;14.60;99.90;;;;;;5060772;28;20036;-58
2023/09/19 01:50:32;;;;;;;7.75;2.28;;;14.60;99.90;;;;;;5070183;28;20047;-57
2023/09/19 01:53:10;;;;;;;10.95;2.40;;;14.60;99.90;;;;;;5046809;28;20475;-58
2023/09/19 01:55:46;;;;;;;8.63;2.25;;;14.60;99.90;;;;;;5063734;28;20043;-58
2023/09/19 01:58:27;;;;;;;11.60;2.40;;;14.60;99.90;;;;;;5045595;28;20044;-58
2023/09/19 02:00:55;;;;;;;6.93;1.92;;;14.60;99.90;;;;;;5059289;28;20158;-58
2023/09/19 02:03:24;;;;;;;10.57;1.98;;;14.60;99.90;;;;;;5054990;28;20052;-57
2023/09/19 02:05:51;;;;;;;11.20;2.25;;;14.60;99.90;;;;;;5060085;28;20048;-56
2023/09/19 02:08:19;;;;;;;10.98;2.38;;;14.60;99.90;;;;;;5061125;28;20037;-56
2023/09/19 02:10:48;;;;;;;16.88;2.42;;;14.60;99.90;;;;;;5035616;28;20055;-57
2023/09/19 02:13:19;;;;;;;7.88;1.92;;;14.60;99.90;;;;;;5063694;28;20099;-56
2023/09/19 02:15:46;;;;;;;7.57;1.88;;;14.60;99.90;;;;;;5064763;28;20040;-56
2023/09/19 02:18:12;;;;;;;9.35;3.03;;;14.60;99.90;;;;;;5059719;28;20131;-57
2023/09/19 02:20:39;;;;;;;7.13;1.60;;;14.60;99.90;;;;;;5065106;28;20372;-58
2023/09/19 02:23:05;;;;;;;8.00;2.42;;;14.60;99.90;;;;;;5061451;28;20048;-57
2023/09/19 02:26:07;;;;;;;10.18;2.25;;;14.70;99.90;;;;;;5065698;28;20056;-58
2023/09/19 02:28:34;;;;;;;6.75;2.15;;;14.70;99.90;;;;;;5000372;28;20069;-54
2023/09/19 02:30:59;;;;;;;8.95;2.65;;;14.60;99.90;;;;;;5045468;28;20052;-58
2023/09/19 02:33:25;;;;;;;10.32;1.88;;;14.60;99.90;;;;;;5056663;28;20053;-55
2023/09/19 02:35:58;;;;;;;6.90;1.95;;;14.70;99.90;;;;;;5066652;28;20121;-54
2023/09/19 02:38:25;;;;;;;9.03;2.57;;;14.70;99.90;;;;;;5069774;28;20071;-58
2023/09/19 02:40:55;;;;;;;9.02;2.08;;;14.70;99.90;;;;;;5063358;28;20677;-57
2023/09/19 02:43:21;;;;;;;7.28;1.75;;;14.70;99.90;;;;;;5082816;28;20032;-58
2023/09/19 02:45:49;;;;;;;8.93;2.17;;;14.70;99.90;;;;;;5045669;28;20120;-56
2023/09/19 02:48:16;;;;;;;11.50;2.33;;;14.70;99.90;;;;;;5047274;28;20561;-56
2023/09/19 02:50:43;;;;;;;12.02;1.95;;;14.70;99.90;;;;;;5044561;28;20647;-56
2023/09/19 02:53:12;;;;;;;7.50;2.10;;;14.70;99.90;;;;;;5068216;28;20120;-58
2023/09/19 02:55:39;;;;;;;7.68;2.03;;;14.70;99.90;;;;;;5046371;28;20041;-57
2023/09/19 02:58:11;;;;;;;12.13;2.30;;;14.70;99.90;;;;;;5065464;28;20040;-58
2023/09/19 03:00:37;;;;;;;7.43;1.83;;;14.70;99.90;;;;;;5065271;28;20087;-58
2023/09/19 03:03:03;;;;;;;11.10;2.15;;;14.70;99.90;;;;;;5065906;28;20462;-59
2023/09/19 03:05:30;;;;;;;7.45;2.35;;;14.70;99.90;;;;;;5048828;28;20499;-56
2023/09/19 03:07:57;;;;;;;8.15;2.28;;;14.70;99.90;;;;;;5052926;28;20143;-57
2023/09/19 03:10:24;;;;;;;8.48;2.05;;;14.70;99.90;;;;;;5048055;28;20044;-56
2023/09/19 03:12:50;;;;;;;10.77;2.35;;;14.70;99.90;;;;;;5048027;28;20097;-58
2023/09/19 03:15:17;;;;;;;11.20;1.90;;;14.70;99.90;;;;;;5046512;28;20051;-57
2023/09/19 03:17:44;;;;;;;7.60;2.08;;;14.70;99.90;;;;;;5059276;28;20063;-56
2023/09/19 03:20:12;;;;;;;12.63;2.13;;;14.70;99.90;;;;;;5064722;28;20551;-57
2023/09/19 03:22:42;;;;;;;7.72;1.80;;;14.70;99.90;;;;;;5046919;28;20049;-55
2023/09/19 03:25:08;;;;;;;8.13;1.75;;;14.60;99.90;;;;;;5064998;28;20044;-57
2023/09/19 03:27:35;;;;;;;8.38;2.00;;;14.60;99.90;;;;;;5072452;28;20048;-57
2023/09/19 03:30:01;;;;;;;8.98;2.30;;;14.60;99.90;;;;;;5061400;28;20052;-58
2023/09/19 03:32:26;;;;;;;7.78;1.88;;;14.60;99.90;;;;;;5060796;28;20041;-58
2023/09/19 03:34:52;;;;;;;8.00;2.50;;;14.50;99.90;;;;;;5034095;28;20113;-56
2023/09/19 03:37:18;;;;;;;13.68;2.65;;;14.50;99.90;;;;;;5044569;28;20043;-57
2023/09/19 03:39:43;;;;;;;8.93;1.95;;;14.50;99.90;;;;;;5059350;28;20053;-57
2023/09/19 03:42:09;;;;;;;6.88;2.00;;;14.50;99.90;;;;;;5057396;28;20080;-56
2023/09/19 03:44:35;;;;;;;12.05;2.17;;;14.50;99.90;;;;;;5064241;28;20564;-57
2023/09/19 03:47:01;;;;;;;8.57;2.60;;;14.40;99.90;;;;;;5060094;28;20102;-57
2023/09/19 03:49:26;;;;;;;9.65;2.95;;;14.40;99.90;;;;;;5067277;28;20047;-56
2023/09/19 03:51:52;;;;;;;11.20;2.35;;;14.40;99.90;;;;;;5059264;28;20041;-56
2023/09/19 03:54:19;;;;;;;9.35;2.10;;;14.50;99.90;;;;;;5065430;28;20115;-57
2023/09/19 03:56:45;;;;;;;10.02;2.00;;;14.50;99.90;;;;;;5062681;28;20807;-55
2023/09/19 03:59:12;;;;;;;10.10;2.35;;;14.50;99.90;;;;;;5061407;28;20087;-56
2023/09/19 04:01:38;;;;;;;11.48;2.28;;;14.40;99.90;;;;;;5060074;28;20044;-56
2023/09/19 04:04:08;;;;;;;10.57;1.65;;;14.40;99.90;;;;;;5041823;28;20124;-55
2023/09/19 04:06:37;;;;;;;7.18;2.15;;;14.40;99.90;;;;;;5058788;28;20040;-57
2023/09/19 04:09:03;;;;;;;9.52;2.20;;;14.40;99.90;;;;;;5054081;28;20048;-57
2023/09/19 04:11:33;;;;;;;9.38;2.30;;;14.40;99.90;;;;;;5041961;28;21325;-57
2023/09/19 04:13:59;;;;;;;8.45;1.67;;;14.40;99.90;;;;;;5059634;28;20052;-56
2023/09/19 04:16:25;;;;;;;9.00;2.08;;;14.40;99.90;;;;;;5062544;28;20037;-54
2023/09/19 04:18:50;;;;;;;11.23;2.58;;;14.40;99.90;;;;;;5060932;28;20115;-58
2023/09/19 04:21:16;;;;;;;13.18;3.00;;;14.40;99.90;;;;;;5061357;28;20037;-58
2023/09/19 04:23:42;;;;;;;8.55;2.10;;;14.40;99.90;;;;;;5056965;28;20036;-57
2023/09/19 04:26:08;;;;;;;9.90;2.03;;;14.40;99.90;;;;;;5046165;28;20495;-58
2023/09/19 04:28:34;;;;;;;8.50;2.08;;;14.50;99.90;;;;;;5055395;28;20037;-58
2023/09/19 04:31:00;;;;;;;11.32;2.00;;;14.50;99.90;;;;;;5067497;28;20036;-59
2023/09/19 04:33:30;;;;;;;9.75;2.55;;;14.50;99.90;;;;;;5064630;28;20072;-58
2023/09/19 04:35:56;;;;;;;7.85;2.10;;;14.50;99.90;;;;;;5057451;28;20114;-58
2023/09/19 04:38:21;;;;;;;13.07;2.90;;;14.50;99.90;;;;;;5054381;28;20068;-59
2023/09/19 04:40:48;;;;;;;6.95;1.80;;;14.50;99.90;;;;;;5061930;28;20043;-57
2023/09/19 04:43:15;;;;;;;10.20;2.05;;;14.50;99.90;;;;;;5041920;28;20090;-59
2023/09/19 04:45:40;;;;;;;13.43;2.60;;;14.50;99.90;;;;;;5038475;28;20047;-57
2023/09/19 04:48:06;;;;;;;9.23;2.00;;;14.60;99.90;;;;;;5064772;28;20040;-58
2023/09/19 04:50:34;;;;;;;9.00;2.15;;;14.60;99.90;;;;;;5060963;28;20048;-54
2023/09/19 04:53:00;;;;;;;10.05;2.78;;;14.60;99.90;;;;;;5060331;28;20162;-58
2023/09/19 04:55:26;;;;;;;9.38;1.98;;;14.60;99.90;;;;;;5060096;28;20044;-57
2023/09/19 04:57:52;;;;;;;9.65;2.10;;;14.60;99.90;;;;;;5061290;28;20040;-57
2023/09/19 05:00:23;;;;;;;9.20;2.05;;;14.60;99.90;;;;;;5058583;28;20077;-55
2023/09/19 05:02:55;;;;;;;11.48;2.03;;;14.60;99.90;;;;;;5056023;28;20047;-58
2023/09/19 05:05:22;;;;;;;12.25;2.10;;;14.60;99.90;;;;;;5057364;28;20699;-56
2023/09/19 05:07:48;;;;;;;12.77;2.30;;;14.60;99.90;;;;;;5043330;28;20064;-58
2023/09/19 05:10:14;;;;;;;10.35;2.50;;;14.60;99.90;;;;;;5040939;28;20136;-56
2023/09/19 05:12:45;;;;;;;10.65;2.13;;;14.70;99.90;;;;;;5065784;28;20481;-56
2023/09/19 05:15:12;;;;;;;11.85;1.98;;;14.70;99.90;;;;;;5029240;28;20093;-59
2023/09/19 05:17:38;;;;;;;10.82;2.25;;;14.70;99.90;;;;;;5046331;28;20044;-58
2023/09/19 05:20:16;;;;;;;11.75;1.60;;;14.70;99.90;;;;;;5064373;28;20049;-57
2023/09/19 05:22:46;;;;;;;9.25;2.03;;;14.70;99.90;;;;;;5061987;28;20083;-57
2023/09/19 05:25:16;;;;;;;8.73;1.98;;;14.70;99.90;;;;;;5058678;28;20577;-57
2023/09/19 05:27:42;;;;;;;10.38;2.30;;;14.70;99.90;;;;;;5060627;28;20049;-57
2023/09/19 05:30:08;;;;;;;9.13;2.00;;;14.70;99.90;;;;;;5055647;28;20124;-57
2023/09/19 05:32:34;;;;;;;8.85;1.88;;;14.80;99.90;;;;;;5046148;28;20125;-57
2023/09/19 05:35:00;;;;;;;8.85;2.20;;;14.80;99.90;;;;;;5062005;28;20129;-58
2023/09/19 05:37:26;;;;;;;10.18;2.63;;;14.80;99.90;;;;;;5063349;28;20506;-58
2023/09/19 05:39:53;;;;;;;8.05;1.98;;;14.80;99.90;;;;;;5063901;28;20044;-58
2023/09/19 05:42:19;;;;;;;8.18;1.67;;;14.80;99.90;;;;;;5053788;28;20083;-57
2023/09/19 05:44:45;;;;;;;8.38;2.17;;;14.80;99.90;;;;;;5076396;28;20072;-59
2023/09/19 05:47:10;;;;;;;9.20;2.00;;;14.90;99.90;;;;;;5047487;28;20120;-57
2023/09/19 05:49:39;;;;;;;11.38;1.92;;;14.80;99.90;;;;;;5060311;28;20044;-57
2023/09/19 05:52:06;;;;;;;10.98;2.25;;;14.90;99.90;;;;;;5063387;28;20036;-57
2023/09/19 05:54:34;;;;;;;8.65;2.47;;;14.90;99.90;;;;;;5043082;28;20482;-58
2023/09/19 05:57:01;;;;;;;12.10;3.13;;;14.90;99.90;;;;;;5046169;28;20045;-57
2023/09/19 05:59:27;;;;;;;13.18;2.35;;;14.90;99.90;;;;;;5048684;28;20040;-56
2023/09/19 06:01:53;;;;;;;9.50;2.40;;;14.90;99.90;;;;;;5054635;28;20571;-57
2023/09/19 06:04:19;;;;;;;11.48;2.35;;;15.00;99.90;;;;;;5058203;28;20029;-57
2023/09/19 06:06:45;;;;;;;9.43;2.00;;;15.00;99.90;;;;;;5060476;28;20033;-59
2023/09/19 06:09:11;;;;;;;8.98;1.92;;;15.00;99.90;;;;;;5051292;28;20041;-57
2023/09/19 06:11:37;;;;;;;12.02;3.80;;;15.00;99.90;;;;;;5046613;28;20563;-56
2023/09/19 06:14:03;;;;;;;11.07;2.13;;;15.10;99.90;;;;;;5070460;28;20072;-56
2023/09/19 06:16:31;;;;;;;11.45;2.30;;;15.10;99.90;;;;;;5067345;28;20040;-54
2023/09/19 06:18:59;;;;;;;9.95;2.25;;;15.10;99.90;;;;;;5062578;28;20672;-57
2023/09/19 06:21:26;;;;;;;8.18;2.30;;;15.10;99.90;;;;;;5065836;28;20033;-56
2023/09/19 06:23:57;;;;;;;7.07;2.10;;;15.10;99.90;;;;;;5061750;28;20033;-57
2023/09/19 06:26:23;;;;;;;11.98;2.20;;;15.10;99.90;;;;;;5065493;28;20522;-59
2023/09/19 06:28:49;;;;;;;11.23;2.00;;;15.10;99.90;;;;;;5049482;28;20040;-58
2023/09/19 06:31:15;;;;;;;9.63;2.38;;;15.10;99.90;;;;;;5067795;28;20040;-55
2023/09/19 06:33:40;;;;;;;10.75;1.95;;;15.20;99.90;;;;;;5068090;28;20127;-58
2023/09/19 06:36:08;;;;;;;12.70;2.00;;;15.20;99.90;;;;;;5050643;28;20044;-57
2023/09/19 06:38:35;;;;;;;7.13;1.95;;;15.30;99.90;;;;;;5045936;28;20037;-57
2023/09/19 06:41:04;;;;;;;8.98;2.00;;;15.30;99.90;;;;;;5063597;28;20044;-54
2023/09/19 06:43:31;;;;;;;10.02;2.33;;;15.30;99.90;;;;;;5048661;28;20044;-57
2023/09/19 06:45:57;;;;;;;12.10;2.55;;;15.40;99.90;;;;;;5036186;28;20107;-57
2023/09/19 06:48:25;;;;;;;10.20;2.47;;;15.40;99.90;;;;;;5064908;28;20510;-58
2023/09/19 06:50:52;;;;;;;9.70;2.20;;;15.40;99.90;;;;;;5066234;28;20047;-59
2023/09/19 06:53:18;;;;;;;8.95;1.95;;;15.50;99.90;;;;;;5052240;28;20478;-54
2023/09/19 06:55:45;;;;;;;8.23;2.30;;;15.50;99.90;;;;;;5022829;28;20040;-59
2023/09/19 06:58:11;;;;;;;8.57;2.92;;;15.50;99.90;;;;;;5054047;28;20040;-58
2023/09/19 07:00:38;;;;;;;8.23;2.58;;;15.60;99.90;;;;;;5061966;28;20555;-56
2023/09/19 07:03:11;;;;;;;6.80;1.85;;;15.60;99.90;;;;;;5065945;28;20056;-58
2023/09/19 07:05:38;;;;;;;11.63;2.33;;;15.70;99.90;;;;;;5062558;28;20045;-57
2023/09/19 07:08:06;;;;;;;8.75;2.08;;;15.70;99.90;;;;;;5058929;28;20127;-58
2023/09/19 07:10:33;;;;;;;5.15;2.08;;;15.80;99.90;;;;;;5061540;28;20040;-57
2023/09/19 07:13:03;;;;;;;14.57;2.95;;;15.80;99.90;;;;;;5058490;28;20522;-57
2023/09/19 07:15:33;;;;;;;12.20;2.30;;;15.90;99.90;;;;;;5042535;28;20408;-57
2023/09/19 07:17:59;;;;;;;10.05;2.25;;;15.90;99.90;;;;;;5063712;28;20032;-56
2023/09/19 07:20:26;;;;;;;7.82;2.00;;;15.90;99.90;;;;;;5061187;28;20102;-58
2023/09/19 07:22:54;;;;;;;11.57;2.63;;;15.90;99.90;;;;;;5064079;28;20043;-58
2023/09/19 07:25:20;;;;;;;8.88;2.25;;;15.90;99.90;;;;;;5060735;28;20157;-57
2023/09/19 07:27:46;;;;;;;13.30;2.30;;;16.00;99.90;;;;;;5065209;28;20127;-59
2023/09/19 07:30:13;;;;;;;13.27;3.03;;;16.10;99.90;;;;;;5062945;28;20032;-58
2023/09/19 07:32:40;;;;;;;14.30;3.25;;;16.10;99.90;;;;;;5063080;28;20067;-56
2023/09/19 07:35:06;;;;;;;11.43;2.63;;;16.20;99.90;;;;;;5060620;28;20041;-57
2023/09/19 07:37:36;;;;;;;10.27;2.15;;;16.30;99.90;;;;;;5062434;28;20044;-58
2023/09/19 07:40:11;;;;;;;13.43;2.47;;;16.40;99.90;;;;;;5062093;28;20087;-56
2023/09/19 07:42:40;;;;;;;13.15;2.65;;;16.50;99.90;;;;;;5064356;28;20519;-59
2023/09/19 07:45:07;;;;;;;8.15;2.30;;;16.60;99.90;;;;;;5062130;28;20048;-58
2023/09/19 07:47:34;;;;;;;15.63;2.63;;;16.70;99.90;;;;;;5062577;28;20399;-58
2023/09/19 07:50:03;;;;;;;8.38;2.15;;;16.80;99.90;;;;;;5046418;28;20059;-58
2023/09/19 07:52:33;;;;;;;14.73;3.15;;;17.00;99.90;;;;;;5063953;28;21240;-57
2023/09/19 07:55:01;;;;;;;14.13;2.90;;;17.10;99.90;;;;;;5046935;28;20052;-58
2023/09/19 07:57:28;;;;;;;9.05;2.63;;;17.10;99.90;;;;;;5068613;28;20040;-57
2023/09/19 07:59:54;;;;;;;17.33;3.55;;;17.00;99.90;;;;;;5063176;28;20041;-57
2023/09/19 08:02:20;;;;;;;12.48;2.80;;;17.00;99.90;;;;;;5063552;28;20036;-55
2023/09/19 08:04:46;;;;;;;12.57;3.20;;;17.00;99.90;;;;;;5044056;28;20112;-56
2023/09/19 08:07:13;;;;;;;10.60;3.00;;;16.90;99.90;;;;;;5062688;28;20605;-55
2023/09/19 08:09:38;;;;;;;12.65;2.95;;;16.80;99.90;;;;;;5049421;28;20044;-58
2023/09/19 08:12:10;;;;;;;11.18;2.83;;;16.80;99.90;;;;;;5060718;28;20064;-57
2023/09/19 08:14:37;;;;;;;11.35;2.35;;;16.80;99.90;;;;;;5043813;28;20040;-57
2023/09/19 08:17:05;;;;;;;12.07;2.95;;;16.80;99.90;;;;;;5062040;28;20100;-58
2023/09/19 08:19:31;;;;;;;10.95;2.50;;;16.70;99.90;;;;;;5058058;28;20041;-55
2023/09/19 08:21:58;;;;;;;9.05;2.70;;;16.90;99.90;;;;;;5042103;28;20048;-57
2023/09/19 08:24:28;;;;;;;10.18;2.97;;;16.90;99.90;;;;;;5065123;28;20388;-59
2023/09/19 08:26:57;;;;;;;12.52;2.42;;;17.00;99.90;;;;;;5063844;28;20115;-58
2023/09/19 08:29:30;;;;;;;11.80;2.42;;;17.10;99.90;;;;;;5045656;28;20533;-57
2023/09/19 08:31:57;;;;;;;10.32;2.17;;;17.20;99.90;;;;;;5061349;28;20574;-58
2023/09/19 08:34:24;;;;;;;12.45;3.38;;;17.20;99.90;;;;;;5061981;28;20040;-57
2023/09/19 08:36:57;;;;;;;10.35;2.60;;;17.20;99.90;;;;;;5058188;28;20207;-57
2023/09/19 08:39:24;;;;;;;13.30;3.23;;;17.20;99.90;;;;;;5043136;28;20033;-59
2023/09/19 08:41:49;;;;;;;13.98;2.17;;;17.20;99.90;;;;;;5041384;28;20370;-58
2023/09/19 08:44:16;;;;;;;12.88;2.63;;;17.30;99.90;;;;;;5062007;28;20182;-58
2023/09/19 08:46:44;;;;;;;9.55;2.47;;;17.40;99.90;;;;;;5058337;28;20048;-58
2023/09/19 08:49:34;;;;;;;9.10;2.53;;;17.50;99.90;;;;;;5035379;28;20048;-58
2023/09/19 08:52:20;;;;;;;9.95;2.08;;;17.60;99.90;;;;;;5059533;28;20041;-56
2023/09/19 08:54:48;;;;;;;8.80;2.20;;;17.70;99.90;;;;;;5062962;28;20569;-57
2023/09/19 08:57:21;;;;;;;11.95;2.45;;;17.90;99.90;;;;;;5062828;28;20806;-58
2023/09/19 08:59:51;;;;;;;13.98;3.65;;;18.00;99.90;;;;;;5063322;28;20070;-56
2023/09/19 09:02:19;;;;;;;17.65;2.80;;;17.90;99.90;;;;;;5059747;28;20044;-55
2023/09/19 09:04:45;;;;;;;12.90;3.42;;;17.90;99.90;;;;;;5062614;28;20519;-57
2023/09/19 09:07:16;;;;;;;11.70;3.00;;;17.90;99.90;;;;;;5044518;28;20056;-59
2023/09/19 09:09:43;;;;;;;13.80;2.42;;;18.00;99.90;;;;;;5061386;28;20052;-59
2023/09/19 09:12:14;;;;;;;10.18;2.88;;;18.10;99.90;;;;;;5061425;28;20123;-58
2023/09/19 09:14:49;;;;;;;15.98;3.40;;;18.20;99.90;;;;;;5061977;28;20051;-56
2023/09/19 09:17:20;;;;;;;10.25;2.78;;;18.30;99.90;;;;;;5060803;28;20056;-57
2023/09/19 09:19:47;;;;;;;13.18;3.13;;;18.40;99.90;;;;;;5049671;28;20063;-58
2023/09/19 09:22:13;;;;;;;11.43;2.85;;;18.40;99.90;;;;;;5059943;28;20503;-56
2023/09/19 09:24:57;;;;;;;12.57;2.75;;;18.50;99.90;;;;;;5044843;28;20046;-56
2023/09/19 09:27:23;;;;;;;11.50;2.70;;;18.50;99.90;;;;;;5058171;28;20071;-57
2023/09/19 09:29:50;;;;;;;11.45;3.13;;;18.40;99.90;;;;;;5038236;28;20080;-60
2023/09/19 09:32:38;;;;;;;18.63;4.38;;;18.30;99.90;;;;;;5065121;28;20437;-59
2023/09/19 09:35:11;;;;;;;12.00;3.40;;;18.40;99.90;;;;;;5062410;28;20079;-57
2023/09/19 09:37:38;;;;;;;8.95;2.80;;;18.40;99.90;;;;;;5061808;28;20032;-59
2023/09/19 09:42:40;;;;;;;10.32;3.70;;;18.40;99.90;;;;;;5051953;28;20049;-57
2023/09/19 09:45:12;;;;;;;10.55;3.83;;;18.50;99.90;;;;;;5059383;28;20045;-56
2023/09/19 09:47:55;;;;;;;12.35;3.22;;;18.40;99.90;;;;;;5063070;28;20045;-58
2023/09/19 09:50:38;;;;;;;12.77;3.20;;;18.40;99.90;;;;;;5045762;28;20054;-60
2023/09/19 09:53:07;;;;;;;12.50;2.90;;;18.50;99.90;;;;;;5064984;28;20056;-58
2023/09/19 09:55:57;;;;;;;10.88;3.08;;;18.50;99.90;;;;;;5059830;28;20678;-57
2023/09/19 09:58:28;;;;;;;13.07;3.20;;;18.40;99.90;;;;;;5076959;28;20075;-57
2023/09/19 10:00:57;;;;;;;9.43;2.90;;;18.40;99.90;;;;;;5067412;28;20054;-56
2023/09/19 10:03:39;;;;;;;14.70;3.10;;;18.40;99.90;;;;;;5064528;28;20050;-57
2023/09/19 10:06:21;;;;;;;10.85;3.10;;;18.40;99.90;;;;;;5046448;28;20102;-59
2023/09/19 10:09:16;;;;;;;23.00;4.22;;;18.40;99.90;;;;;;5065623;28;20040;-58
2023/09/19 10:11:47;;;;;;;14.10;3.47;;;18.20;99.90;;;;;;5057181;28;20077;-57
2023/09/19 10:14:18;;;;;;;14.18;3.65;;;18.20;99.90;;;;;;5055343;28;20119;-55
2023/09/19 10:16:47;;;;;;;12.77;3.50;;;18.20;99.90;;;;;;5061966;28;20113;-56
2023/09/19 10:19:22;;;;;;;16.50;3.17;;;18.20;99.90;;;;;;5058818;28;20063;-57
2023/09/19 10:21:50;;;;;;;12.23;3.15;;;18.30;99.90;;;;;;5058981;28;20040;-60
2023/09/19 10:24:17;;;;;;;10.82;3.20;;;18.40;99.90;;;;;;5067192;28;20784;-58
2023/09/19 10:26:45;;;;;;;17.45;4.07;;;18.40;99.90;;;;;;5055052;28;20076;-58
2023/09/19 10:29:15;;;;;;;11.27;3.30;;;18.50;99.90;;;;;;5058798;28;20716;-58
2023/09/19 10:31:47;;;;;;;10.52;3.22;;;18.60;99.90;;;;;;5040625;28;20101;-60
2023/09/19 10:34:14;;;;;;;13.38;3.70;;;18.50;99.90;;;;;;5053455;28;20080;-59
2023/09/19 10:36:45;;;;;;;18.98;3.80;;;18.50;99.90;;;;;;5058351;28;20043;-56
2023/09/19 10:39:13;;;;;;;13.80;3.22;;;18.50;99.90;;;;;;5059064;28;20535;-56
2023/09/19 10:41:39;;;;;;;15.27;3.67;;;18.60;99.90;;;;;;5054967;28;20087;-55
2023/09/19 10:44:06;;;;;;;11.38;3.78;;;18.60;99.90;;;;;;5057649;28;20036;-59
2023/09/19 10:46:36;;;;;;;18.00;4.15;;;18.70;99.90;;;;;;5059596;28;20151;-60
2023/09/19 10:49:03;;;;;;;10.23;3.42;;;18.60;99.90;;;;;;5083607;28;20045;-57
2023/09/19 10:51:41;;;;;;;11.93;3.83;;;18.50;99.90;;;;;;5060719;28;20040;-56
2023/09/19 10:54:15;;;;;;;16.13;3.85;;;18.30;99.90;;;;;;5048917;28;20049;-56
2023/09/19 10:56:51;;;;;;;15.90;3.15;;;18.20;99.90;;;;;;5056244;28;20040;-60
2023/09/19 10:59:21;;;;;;;13.93;3.80;;;18.10;99.90;;;;;;5062060;28;20075;-57
2023/09/19 11:01:52;;;;;;;18.13;4.53;;;18.00;99.90;;;;;;5004958;28;20040;-57
2023/09/19 11:04:30;;;;;;;16.80;3.83;;;18.00;99.90;;;;;;5053557;28;20044;-58
2023/09/19 11:07:14;;;;;;;10.60;3.95;;;18.00;99.90;;;;;;5036536;28;20067;-57
2023/09/19 11:10:01;;;;;;;18.60;4.10;;;18.00;99.90;;;;;;5059342;28;20059;-57
2023/09/19 11:12:45;;;;;;;11.27;3.38;;;18.10;99.90;;;;;;5060655;28;20051;-59
2023/09/19 11:15:49;;;;;;;15.10;3.60;;;18.00;99.90;;;;;;5063315;28;20159;-58
2023/09/19 11:18:40;;;;;;;13.60;3.33;;;18.10;99.90;;;;;;5061102;28;20139;-57
2023/09/19 11:21:31;;;;;;;13.38;3.83;;;18.10;99.90;;;;;;5052863;28;20059;-56
2023/09/19 11:24:24;;;;;;;12.05;3.30;;;18.10;99.90;;;;;;5055412;28;21460;-57
2023/09/19 11:27:13;;;;;;;11.10;3.92;;;18.00;99.90;;;;;;5025401;28;20041;-56
2023/09/19 11:29:40;;;;;;;13.25;3.50;;;18.00;99.90;;;;;;5061703;28;20446;-57
2023/09/19 11:32:06;;;;;;;16.63;4.10;;;18.10;99.90;;;;;;5059254;28;20045;-57
2023/09/19 11:34:47;;;;;;;17.50;3.50;;;18.20;99.90;;;;;;5057054;28;20077;-56
2023/09/19 11:37:15;;;;;;;14.13;3.38;;;18.20;99.90;;;;;;5058875;28;20037;-60
2023/09/19 11:40:16;;;;;;;13.18;3.30;;;18.20;99.90;;;;;;5047352;28;20044;-58
2023/09/19 11:42:50;;;;;;;12.50;3.58;;;18.20;99.90;;;;;;5060526;28;20044;-59
2023/09/19 11:45:46;;;;;;;13.65;3.08;;;18.00;99.90;;;;;;5046794;28;20037;-59
2023/09/19 11:48:18;;;;;;;15.38;3.70;;;18.00;99.90;;;;;;5062548;28;20044;-55
2023/09/19 11:50:47;;;;;;;11.75;3.00;;;18.00;99.90;;;;;;5042322;28;20044;-60
2023/09/19 11:53:13;;;;;;;14.80;3.35;;;17.90;99.90;;;;;;5043480;28;20102;-58
2023/09/19 11:55:40;;;;;;;12.23;3.53;;;17.80;99.90;;;;;;5041528;28;20033;-56
2023/09/19 11:58:08;;;;;;;13.85;3.53;;;17.80;99.90;;;;;;5038415;28;20047;-56
2023/09/19 12:00:39;;;;;;;15.32;4.18;;;17.80;99.90;;;;;;5023270;28;20153;-57
2023/09/19 12:03:11;;;;;;;15.50;3.45;;;17.60;99.90;;;;;;5029445;28;20053;-57
2023/09/19 12:05:37;;;;;;;14.35;3.08;;;17.50;99.90;;;;;;5051440;28;20083;-59
2023/09/19 12:08:07;;;;;;;11.13;3.40;;;17.30;99.90;;;;;;5056718;28;20041;-55
2023/09/19 12:10:36;;;;;;;13.85;3.45;;;17.30;99.90;;;;;;5062289;28;20052;-55
2023/09/19 12:13:02;;;;;;;12.10;3.30;;;17.20;99.90;;;;;;5061496;28;20053;-56
2023/09/19 12:15:34;;;;;;;12.20;3.70;;;17.10;99.90;;;;;;5079349;28;20032;-59
2023/09/19 12:18:00;;;;;;;8.52;3.20;;;17.10;99.90;;;;;;5055319;28;20041;-58
2023/09/19 12:20:47;;;;;;;12.07;2.97;;;17.30;99.90;;;;;;5060098;28;20051;-57
2023/09/19 12:23:15;;;;;;;11.90;3.35;;;17.40;99.90;;;;;;5038026;28;20110;-58
2023/09/19 12:25:46;;;;;;;10.77;2.80;;;17.40;99.90;;;;;;5025239;28;20682;-60
2023/09/19 12:28:12;;;;;;;10.05;2.47;;;17.50;99.90;;;;;;5047763;28;20150;-60
2023/09/19 12:30:41;;;;;;;10.98;2.90;;;17.60;99.90;;;;;;5050885;28;20136;-60
2023/09/19 12:33:25;;;;;;;12.05;2.95;;;17.60;99.90;;;;;;5033009;28;20064;-58
2023/09/19 12:35:54;;;;;;;11.68;2.90;;;17.70;99.90;;;;;;5039772;28;20115;-60
2023/09/19 12:38:35;;;;;;;12.73;2.72;;;17.70;99.90;;;;;;5041768;28;20052;-59
2023/09/19 12:41:01;;;;;;;9.07;2.45;;;17.70;99.90;;;;;;5051892;28;20582;-56
2023/09/19 12:43:36;;;;;;;9.93;3.05;;;17.80;99.90;;;;;;5014727;28;20028;-56
2023/09/19 12:46:02;;;;;;;14.73;3.33;;;17.80;99.90;;;;;;5060733;28;20080;-59
2023/09/19 12:48:34;;;;;;;10.70;2.30;;;17.70;99.90;;;;;;5043226;28;20588;-59
2023/09/19 12:51:11;;;;;;;7.80;2.30;;;17.70;99.90;;;;;;5042075;28;20060;-57
2023/09/19 12:53:43;;;;;;;11.07;2.40;;;17.70;99.90;;;;;;5053166;28;20066;-60
2023/09/19 12:56:16;;;;;;;11.50;2.65;;;17.70;99.90;;;;;;5055584;28;20071;-58
2023/09/19 12:58:56;;;;;;;8.50;2.95;;;17.60;99.90;;;;;;5052203;28;20060;-58